sensor_id;sensor_type;location;lat;lon;timestamp;P1;durP1;ratioP1;P2;durP2;ratioP2
19235;SDS011;9752;54.270;12.470;2022-10-16T00:02:19;9.40;;;7.73;;
19235;SDS011;9752;54.270;12.470;2022-10-16T00:07:20;10.97;;;8.17;;
19235;SDS011;9752;54.270;12.470;2022-10-16T00:12:24;8.90;;;8.03;;
19235;SDS011;9752;54.270;12.470;2022-10-16T00:17:26;8.07;;;7.27;;
19235;SDS011;9752;54.270;12.470;2022-10-16T00:22:27;9.80;;;7.77;;
19235;SDS011;9752;54.270;12.470;2022-10-16T00:27:30;9.63;;;7.47;;
19235;SDS011;9752;54.270;12.470;2022-10-16T00:32:32;10.20;;;7.67;;
19235;SDS011;9752;54.270;12.470;2022-10-16T00:37:34;7.67;;;6.87;;
19235;SDS011;9752;54.270;12.470;2022-10-16T00:42:37;9.07;;;8.17;;
19235;SDS011;9752;54.270;12.470;2022-10-16T00:47:40;11.77;;;8.57;;
19235;SDS011;9752;54.270;12.470;2022-10-16T00:52:46;10.37;;;9.00;;
19235;SDS011;9752;54.270;12.470;2022-10-16T00:57:51;8.87;;;7.97;;
19235;SDS011;9752;54.270;12.470;2022-10-16T01:02:53;10.77;;;8.00;;
19235;SDS011;9752;54.270;12.470;2022-10-16T01:07:58;10.77;;;9.60;;
19235;SDS011;9752;54.270;12.470;2022-10-16T01:13:11;12.97;;;10.47;;
19235;SDS011;9752;54.270;12.470;2022-10-16T01:18:20;12.43;;;11.10;;
19235;SDS011;9752;54.270;12.470;2022-10-16T01:23:32;13.77;;;10.63;;
19235;SDS011;9752;54.270;12.470;2022-10-16T01:28:47;13.40;;;11.13;;
19235;SDS011;9752;54.270;12.470;2022-10-16T01:33:55;12.20;;;10.90;;
19235;SDS011;9752;54.270;12.470;2022-10-16T01:39:00;12.00;;;10.67;;
19235;SDS011;9752;54.270;12.470;2022-10-16T01:44:05;12.23;;;10.37;;
19235;SDS011;9752;54.270;12.470;2022-10-16T01:49:10;12.00;;;9.93;;
19235;SDS011;9752;54.270;12.470;2022-10-16T01:54:13;11.03;;;9.83;;
19235;SDS011;9752;54.270;12.470;2022-10-16T01:59:19;13.80;;;12.30;;
19235;SDS011;9752;54.270;12.470;2022-10-16T02:04:26;13.23;;;10.93;;
19235;SDS011;9752;54.270;12.470;2022-10-16T02:09:32;15.67;;;11.83;;
19235;SDS011;9752;54.270;12.470;2022-10-16T02:14:38;12.53;;;11.23;;
19235;SDS011;9752;54.270;12.470;2022-10-16T02:19:41;13.47;;;10.27;;
19235;SDS011;9752;54.270;12.470;2022-10-16T02:24:46;14.57;;;10.63;;
19235;SDS011;9752;54.270;12.470;2022-10-16T02:29:57;12.50;;;10.17;;
19235;SDS011;9752;54.270;12.470;2022-10-16T02:35:08;10.43;;;8.87;;
19235;SDS011;9752;54.270;12.470;2022-10-16T02:40:10;14.47;;;11.43;;
19235;SDS011;9752;54.270;12.470;2022-10-16T02:45:14;12.60;;;10.47;;
19235;SDS011;9752;54.270;12.470;2022-10-16T02:50:16;12.43;;;11.20;;
19235;SDS011;9752;54.270;12.470;2022-10-16T02:55:18;16.17;;;12.53;;
19235;SDS011;9752;54.270;12.470;2022-10-16T03:00:21;15.47;;;13.37;;
19235;SDS011;9752;54.270;12.470;2022-10-16T03:05:23;18.13;;;14.23;;
19235;SDS011;9752;54.270;12.470;2022-10-16T03:10:24;19.13;;;15.10;;
19235;SDS011;9752;54.270;12.470;2022-10-16T03:15:27;18.90;;;15.17;;
19235;SDS011;9752;54.270;12.470;2022-10-16T03:20:29;22.03;;;15.97;;
19235;SDS011;9752;54.270;12.470;2022-10-16T03:25:31;16.97;;;14.37;;
19235;SDS011;9752;54.270;12.470;2022-10-16T03:30:34;22.37;;;14.77;;
19235;SDS011;9752;54.270;12.470;2022-10-16T03:35:36;24.07;;;16.10;;
19235;SDS011;9752;54.270;12.470;2022-10-16T03:40:37;18.37;;;14.37;;
19235;SDS011;9752;54.270;12.470;2022-10-16T03:45:40;18.90;;;15.43;;
19235;SDS011;9752;54.270;12.470;2022-10-16T03:50:42;23.77;;;14.67;;
19235;SDS011;9752;54.270;12.470;2022-10-16T03:55:44;21.47;;;15.60;;
19235;SDS011;9752;54.270;12.470;2022-10-16T04:00:47;18.77;;;14.33;;
19235;SDS011;9752;54.270;12.470;2022-10-16T04:05:49;18.07;;;13.73;;
19235;SDS011;9752;54.270;12.470;2022-10-16T04:10:51;17.83;;;12.77;;
19235;SDS011;9752;54.270;12.470;2022-10-16T04:15:54;18.17;;;13.70;;
19235;SDS011;9752;54.270;12.470;2022-10-16T04:20:55;14.20;;;11.87;;
19235;SDS011;9752;54.270;12.470;2022-10-16T04:25:57;17.07;;;13.33;;
19235;SDS011;9752;54.270;12.470;2022-10-16T04:31:00;14.57;;;12.13;;
19235;SDS011;9752;54.270;12.470;2022-10-16T04:36:05;15.27;;;12.20;;
19235;SDS011;9752;54.270;12.470;2022-10-16T04:41:07;16.17;;;13.20;;
19235;SDS011;9752;54.270;12.470;2022-10-16T04:46:10;14.93;;;12.00;;
19235;SDS011;9752;54.270;12.470;2022-10-16T04:51:11;19.47;;;12.47;;
19235;SDS011;9752;54.270;12.470;2022-10-16T04:56:13;20.43;;;12.47;;
19235;SDS011;9752;54.270;12.470;2022-10-16T05:01:17;16.03;;;11.80;;
19235;SDS011;9752;54.270;12.470;2022-10-16T05:06:18;11.47;;;9.73;;
19235;SDS011;9752;54.270;12.470;2022-10-16T05:11:20;15.83;;;11.03;;
19235;SDS011;9752;54.270;12.470;2022-10-16T05:16:23;17.77;;;11.60;;
19235;SDS011;9752;54.270;12.470;2022-10-16T05:21:25;14.83;;;10.37;;
19235;SDS011;9752;54.270;12.470;2022-10-16T05:26:26;13.03;;;10.57;;
19235;SDS011;9752;54.270;12.470;2022-10-16T05:31:29;15.77;;;9.93;;
19235;SDS011;9752;54.270;12.470;2022-10-16T05:36:31;12.40;;;9.90;;
19235;SDS011;9752;54.270;12.470;2022-10-16T05:41:33;12.27;;;10.97;;
19235;SDS011;9752;54.270;12.470;2022-10-16T05:46:36;11.87;;;9.27;;
19235;SDS011;9752;54.270;12.470;2022-10-16T05:51:38;12.73;;;8.87;;
19235;SDS011;9752;54.270;12.470;2022-10-16T05:56:40;11.13;;;8.90;;
19235;SDS011;9752;54.270;12.470;2022-10-16T06:01:43;9.80;;;7.87;;
19235;SDS011;9752;54.270;12.470;2022-10-16T06:06:44;10.83;;;8.43;;
19235;SDS011;9752;54.270;12.470;2022-10-16T06:11:46;8.30;;;7.40;;
19235;SDS011;9752;54.270;12.470;2022-10-16T06:16:49;14.10;;;7.10;;
19235;SDS011;9752;54.270;12.470;2022-10-16T06:21:51;8.93;;;7.17;;
19235;SDS011;9752;54.270;12.470;2022-10-16T06:26:52;10.17;;;6.33;;
19235;SDS011;9752;54.270;12.470;2022-10-16T06:31:55;10.27;;;6.20;;
19235;SDS011;9752;54.270;12.470;2022-10-16T06:36:57;5.23;;;4.73;;
19235;SDS011;9752;54.270;12.470;2022-10-16T06:41:59;5.00;;;4.50;;
19235;SDS011;9752;54.270;12.470;2022-10-16T06:47:08;8.43;;;5.23;;
19235;SDS011;9752;54.270;12.470;2022-10-16T06:52:10;8.60;;;4.83;;
19235;SDS011;9752;54.270;12.470;2022-10-16T06:57:11;6.50;;;4.83;;
19235;SDS011;9752;54.270;12.470;2022-10-16T07:02:15;7.23;;;4.73;;
19235;SDS011;9752;54.270;12.470;2022-10-16T07:07:16;6.90;;;4.60;;
19235;SDS011;9752;54.270;12.470;2022-10-16T07:12:18;5.50;;;4.20;;
19235;SDS011;9752;54.270;12.470;2022-10-16T07:17:21;5.70;;;3.97;;
19235;SDS011;9752;54.270;12.470;2022-10-16T07:22:23;6.73;;;4.13;;
19235;SDS011;9752;54.270;12.470;2022-10-16T07:27:24;8.63;;;3.90;;
19235;SDS011;9752;54.270;12.470;2022-10-16T07:32:27;5.67;;;3.73;;
19235;SDS011;9752;54.270;12.470;2022-10-16T07:37:29;4.03;;;3.73;;
19235;SDS011;9752;54.270;12.470;2022-10-16T07:42:32;4.53;;;3.30;;
19235;SDS011;9752;54.270;12.470;2022-10-16T07:47:35;5.00;;;3.20;;
19235;SDS011;9752;54.270;12.470;2022-10-16T07:52:37;4.00;;;3.60;;
19235;SDS011;9752;54.270;12.470;2022-10-16T07:57:38;4.23;;;3.17;;
19235;SDS011;9752;54.270;12.470;2022-10-16T08:02:41;4.17;;;3.40;;
19235;SDS011;9752;54.270;12.470;2022-10-16T08:07:47;4.63;;;4.00;;
19235;SDS011;9752;54.270;12.470;2022-10-16T08:12:49;4.47;;;4.07;;
19235;SDS011;9752;54.270;12.470;2022-10-16T08:17:56;4.23;;;3.67;;
19235;SDS011;9752;54.270;12.470;2022-10-16T08:23:00;3.93;;;3.63;;
19235;SDS011;9752;54.270;12.470;2022-10-16T08:28:02;4.50;;;3.80;;
19235;SDS011;9752;54.270;12.470;2022-10-16T08:33:06;3.37;;;3.07;;
19235;SDS011;9752;54.270;12.470;2022-10-16T08:38:08;4.70;;;3.23;;
19235;SDS011;9752;54.270;12.470;2022-10-16T08:43:22;4.27;;;3.47;;
19235;SDS011;9752;54.270;12.470;2022-10-16T08:48:35;3.67;;;3.30;;
19235;SDS011;9752;54.270;12.470;2022-10-16T08:53:46;3.50;;;3.20;;
19235;SDS011;9752;54.270;12.470;2022-10-16T08:58:54;6.67;;;3.53;;
19235;SDS011;9752;54.270;12.470;2022-10-16T09:04:04;3.67;;;3.40;;
19235;SDS011;9752;54.270;12.470;2022-10-16T09:09:28;4.80;;;3.10;;
19235;SDS011;9752;54.270;12.470;2022-10-16T09:14:49;3.77;;;3.40;;
19235;SDS011;9752;54.270;12.470;2022-10-16T09:20:02;5.13;;;3.23;;
19235;SDS011;9752;54.270;12.470;2022-10-16T09:25:15;3.63;;;3.10;;
19235;SDS011;9752;54.270;12.470;2022-10-16T09:30:20;3.50;;;3.20;;
19235;SDS011;9752;54.270;12.470;2022-10-16T09:35:27;3.07;;;2.80;;
19235;SDS011;9752;54.270;12.470;2022-10-16T09:40:35;6.83;;;3.03;;
19235;SDS011;9752;54.270;12.470;2022-10-16T09:45:38;6.80;;;2.70;;
19235;SDS011;9752;54.270;12.470;2022-10-16T09:50:41;3.77;;;3.03;;
19235;SDS011;9752;54.270;12.470;2022-10-16T09:55:49;7.20;;;3.63;;
19235;SDS011;9752;54.270;12.470;2022-10-16T10:00:54;3.97;;;2.80;;
19235;SDS011;9752;54.270;12.470;2022-10-16T10:05:57;3.67;;;2.80;;
19235;SDS011;9752;54.270;12.470;2022-10-16T10:10:59;3.13;;;2.93;;
19235;SDS011;9752;54.270;12.470;2022-10-16T10:16:01;3.87;;;3.53;;
19235;SDS011;9752;54.270;12.470;2022-10-16T10:21:04;3.60;;;3.30;;
19235;SDS011;9752;54.270;12.470;2022-10-16T10:26:06;3.93;;;3.63;;
19235;SDS011;9752;54.270;12.470;2022-10-16T10:31:17;8.33;;;4.77;;
19235;SDS011;9752;54.270;12.470;2022-10-16T10:36:29;4.83;;;4.43;;
19235;SDS011;9752;54.270;12.470;2022-10-16T10:41:49;4.03;;;3.83;;
19235;SDS011;9752;54.270;12.470;2022-10-16T10:47:01;3.90;;;3.60;;
19235;SDS011;9752;54.270;12.470;2022-10-16T10:52:20;4.77;;;3.90;;
19235;SDS011;9752;54.270;12.470;2022-10-16T10:57:35;4.47;;;4.07;;
19235;SDS011;9752;54.270;12.470;2022-10-16T11:02:46;4.77;;;4.47;;
19235;SDS011;9752;54.270;12.470;2022-10-16T11:07:54;5.07;;;4.70;;
19235;SDS011;9752;54.270;12.470;2022-10-16T11:13:01;5.50;;;5.03;;
19235;SDS011;9752;54.270;12.470;2022-10-16T11:18:13;5.97;;;4.93;;
19235;SDS011;9752;54.270;12.470;2022-10-16T11:23:23;5.33;;;5.03;;
19235;SDS011;9752;54.270;12.470;2022-10-16T11:28:29;5.63;;;5.17;;
19235;SDS011;9752;54.270;12.470;2022-10-16T11:33:37;4.60;;;4.20;;
19235;SDS011;9752;54.270;12.470;2022-10-16T11:38:46;4.90;;;4.60;;
19235;SDS011;9752;54.270;12.470;2022-10-16T11:43:58;5.93;;;5.47;;
19235;SDS011;9752;54.270;12.470;2022-10-16T11:49:09;5.30;;;4.90;;
19235;SDS011;9752;54.270;12.470;2022-10-16T11:54:18;5.13;;;4.83;;
19235;SDS011;9752;54.270;12.470;2022-10-16T11:59:29;5.27;;;4.97;;
19235;SDS011;9752;54.270;12.470;2022-10-16T12:04:39;5.70;;;5.30;;
19235;SDS011;9752;54.270;12.470;2022-10-16T12:09:47;5.83;;;5.53;;
19235;SDS011;9752;54.270;12.470;2022-10-16T12:14:59;5.00;;;4.60;;
19235;SDS011;9752;54.270;12.470;2022-10-16T12:20:18;5.17;;;4.83;;
19235;SDS011;9752;54.270;12.470;2022-10-16T12:25:25;5.90;;;5.60;;
19235;SDS011;9752;54.270;12.470;2022-10-16T12:30:30;5.70;;;5.20;;
19235;SDS011;9752;54.270;12.470;2022-10-16T12:35:34;6.37;;;5.87;;
19235;SDS011;9752;54.270;12.470;2022-10-16T12:40:46;5.60;;;5.20;;
19235;SDS011;9752;54.270;12.470;2022-10-16T12:46:02;6.03;;;5.60;;
19235;SDS011;9752;54.270;12.470;2022-10-16T12:51:10;5.73;;;5.40;;
19235;SDS011;9752;54.270;12.470;2022-10-16T12:56:14;6.07;;;5.87;;
19235;SDS011;9752;54.270;12.470;2022-10-16T13:01:29;5.50;;;5.20;;
19235;SDS011;9752;54.270;12.470;2022-10-16T13:06:43;5.33;;;5.03;;
19235;SDS011;9752;54.270;12.470;2022-10-16T13:11:58;6.13;;;5.20;;
19235;SDS011;9752;54.270;12.470;2022-10-16T13:17:15;5.13;;;4.80;;
19235;SDS011;9752;54.270;12.470;2022-10-16T13:22:24;5.90;;;5.30;;
19235;SDS011;9752;54.270;12.470;2022-10-16T13:27:37;8.83;;;5.87;;
19235;SDS011;9752;54.270;12.470;2022-10-16T13:32:46;6.47;;;5.30;;
19235;SDS011;9752;54.270;12.470;2022-10-16T13:37:48;6.40;;;5.90;;
19235;SDS011;9752;54.270;12.470;2022-10-16T13:42:52;5.67;;;5.37;;
19235;SDS011;9752;54.270;12.470;2022-10-16T13:48:02;7.20;;;5.80;;
19235;SDS011;9752;54.270;12.470;2022-10-16T13:53:05;4.93;;;4.70;;
19235;SDS011;9752;54.270;12.470;2022-10-16T13:58:11;5.07;;;4.73;;
19235;SDS011;9752;54.270;12.470;2022-10-16T14:03:14;5.10;;;4.70;;
19235;SDS011;9752;54.270;12.470;2022-10-16T14:08:17;5.23;;;4.73;;
19235;SDS011;9752;54.270;12.470;2022-10-16T14:13:26;5.07;;;4.67;;
19235;SDS011;9752;54.270;12.470;2022-10-16T14:18:32;5.57;;;5.17;;
19235;SDS011;9752;54.270;12.470;2022-10-16T14:23:35;4.73;;;4.33;;
19235;SDS011;9752;54.270;12.470;2022-10-16T14:28:40;5.73;;;4.80;;
19235;SDS011;9752;54.270;12.470;2022-10-16T14:33:42;5.07;;;4.60;;
19235;SDS011;9752;54.270;12.470;2022-10-16T14:38:48;9.77;;;4.80;;
19235;SDS011;9752;54.270;12.470;2022-10-16T14:43:52;4.23;;;3.93;;
19235;SDS011;9752;54.270;12.470;2022-10-16T14:48:57;9.10;;;4.60;;
19235;SDS011;9752;54.270;12.470;2022-10-16T14:54:02;5.27;;;4.13;;
19235;SDS011;9752;54.270;12.470;2022-10-16T14:59:12;5.00;;;3.70;;
19235;SDS011;9752;54.270;12.470;2022-10-16T15:04:18;5.37;;;4.13;;
19235;SDS011;9752;54.270;12.470;2022-10-16T15:09:20;6.70;;;4.50;;
19235;SDS011;9752;54.270;12.470;2022-10-16T15:14:23;5.23;;;4.73;;
19235;SDS011;9752;54.270;12.470;2022-10-16T15:19:25;4.70;;;4.33;;
19235;SDS011;9752;54.270;12.470;2022-10-16T15:24:26;6.83;;;3.53;;
19235;SDS011;9752;54.270;12.470;2022-10-16T15:29:29;5.33;;;4.93;;
19235;SDS011;9752;54.270;12.470;2022-10-16T15:34:31;6.27;;;5.10;;
19235;SDS011;9752;54.270;12.470;2022-10-16T15:39:33;8.53;;;4.67;;
19235;SDS011;9752;54.270;12.470;2022-10-16T15:44:36;4.97;;;4.50;;
19235;SDS011;9752;54.270;12.470;2022-10-16T15:49:37;6.80;;;4.13;;
19235;SDS011;9752;54.270;12.470;2022-10-16T15:54:39;5.63;;;3.70;;
19235;SDS011;9752;54.270;12.470;2022-10-16T15:59:42;6.47;;;3.80;;
19235;SDS011;9752;54.270;12.470;2022-10-16T16:04:44;5.67;;;3.83;;
19235;SDS011;9752;54.270;12.470;2022-10-16T16:09:46;5.90;;;3.87;;
19235;SDS011;9752;54.270;12.470;2022-10-16T16:14:49;7.70;;;3.20;;
19235;SDS011;9752;54.270;12.470;2022-10-16T16:19:51;7.10;;;3.10;;
19235;SDS011;9752;54.270;12.470;2022-10-16T16:24:53;6.40;;;3.40;;
19235;SDS011;9752;54.270;12.470;2022-10-16T16:29:56;4.20;;;3.33;;
19235;SDS011;9752;54.270;12.470;2022-10-16T16:34:57;4.60;;;2.70;;
19235;SDS011;9752;54.270;12.470;2022-10-16T16:39:59;6.67;;;3.10;;
19235;SDS011;9752;54.270;12.470;2022-10-16T16:45:02;4.30;;;3.00;;
19235;SDS011;9752;54.270;12.470;2022-10-16T16:50:05;4.83;;;3.53;;
19235;SDS011;9752;54.270;12.470;2022-10-16T16:55:07;6.13;;;3.37;;
19235;SDS011;9752;54.270;12.470;2022-10-16T17:00:11;11.13;;;3.63;;
19235;SDS011;9752;54.270;12.470;2022-10-16T17:05:13;4.30;;;3.00;;
19235;SDS011;9752;54.270;12.470;2022-10-16T17:10:15;3.37;;;2.80;;
19235;SDS011;9752;54.270;12.470;2022-10-16T17:15:19;7.63;;;3.30;;
19235;SDS011;9752;54.270;12.470;2022-10-16T17:20:20;6.87;;;2.90;;
19235;SDS011;9752;54.270;12.470;2022-10-16T17:25:22;4.87;;;2.93;;
19235;SDS011;9752;54.270;12.470;2022-10-16T17:30:25;13.60;;;3.97;;
19235;SDS011;9752;54.270;12.470;2022-10-16T17:35:27;6.43;;;3.43;;
19235;SDS011;9752;54.270;12.470;2022-10-16T17:40:28;7.10;;;3.37;;
19235;SDS011;9752;54.270;12.470;2022-10-16T17:45:35;5.97;;;3.33;;
19235;SDS011;9752;54.270;12.470;2022-10-16T17:50:39;10.27;;;3.67;;
19235;SDS011;9752;54.270;12.470;2022-10-16T17:55:41;8.53;;;3.90;;
19235;SDS011;9752;54.270;12.470;2022-10-16T18:00:44;12.57;;;3.53;;
19235;SDS011;9752;54.270;12.470;2022-10-16T18:05:46;7.10;;;3.43;;
19235;SDS011;9752;54.270;12.470;2022-10-16T18:10:48;7.17;;;3.70;;
19235;SDS011;9752;54.270;12.470;2022-10-16T18:15:59;11.30;;;4.70;;
19235;SDS011;9752;54.270;12.470;2022-10-16T18:21:02;7.90;;;5.20;;
19235;SDS011;9752;54.270;12.470;2022-10-16T18:26:05;12.37;;;4.83;;
19235;SDS011;9752;54.270;12.470;2022-10-16T18:31:11;10.33;;;3.90;;
19235;SDS011;9752;54.270;12.470;2022-10-16T18:36:16;6.57;;;4.00;;
19235;SDS011;9752;54.270;12.470;2022-10-16T18:41:19;11.17;;;6.70;;
19235;SDS011;9752;54.270;12.470;2022-10-16T18:46:22;14.37;;;6.90;;
19235;SDS011;9752;54.270;12.470;2022-10-16T18:51:25;31.40;;;18.47;;
19235;SDS011;9752;54.270;12.470;2022-10-16T18:56:29;23.93;;;14.90;;
19235;SDS011;9752;54.270;12.470;2022-10-16T19:01:34;20.93;;;13.13;;
19235;SDS011;9752;54.270;12.470;2022-10-16T19:06:38;21.63;;;12.23;;
19235;SDS011;9752;54.270;12.470;2022-10-16T19:11:41;21.97;;;14.83;;
19235;SDS011;9752;54.270;12.470;2022-10-16T19:16:45;9.93;;;5.47;;
19235;SDS011;9752;54.270;12.470;2022-10-16T19:21:47;10.67;;;6.00;;
19235;SDS011;9752;54.270;12.470;2022-10-16T19:26:55;8.43;;;5.50;;
19235;SDS011;9752;54.270;12.470;2022-10-16T19:31:58;12.77;;;5.83;;
19235;SDS011;9752;54.270;12.470;2022-10-16T19:37:01;10.47;;;6.13;;
19235;SDS011;9752;54.270;12.470;2022-10-16T19:42:03;7.17;;;5.13;;
19235;SDS011;9752;54.270;12.470;2022-10-16T19:47:06;10.37;;;5.33;;
19235;SDS011;9752;54.270;12.470;2022-10-16T19:52:08;12.90;;;5.50;;
19235;SDS011;9752;54.270;12.470;2022-10-16T19:57:10;17.57;;;6.10;;
19235;SDS011;9752;54.270;12.470;2022-10-16T20:02:13;7.30;;;5.17;;
19235;SDS011;9752;54.270;12.470;2022-10-16T20:07:15;10.77;;;5.30;;
19235;SDS011;9752;54.270;12.470;2022-10-16T20:12:16;7.60;;;5.53;;
19235;SDS011;9752;54.270;12.470;2022-10-16T20:17:19;14.50;;;7.03;;
19235;SDS011;9752;54.270;12.470;2022-10-16T20:22:21;9.27;;;5.77;;
19235;SDS011;9752;54.270;12.470;2022-10-16T20:27:23;10.57;;;6.27;;
19235;SDS011;9752;54.270;12.470;2022-10-16T20:32:29;9.80;;;6.40;;
19235;SDS011;9752;54.270;12.470;2022-10-16T20:37:31;9.03;;;6.33;;
19235;SDS011;9752;54.270;12.470;2022-10-16T20:42:32;8.13;;;5.60;;
19235;SDS011;9752;54.270;12.470;2022-10-16T20:47:35;8.30;;;6.30;;
19235;SDS011;9752;54.270;12.470;2022-10-16T20:52:37;12.00;;;6.50;;
19235;SDS011;9752;54.270;12.470;2022-10-16T20:57:39;9.53;;;6.57;;
19235;SDS011;9752;54.270;12.470;2022-10-16T21:02:42;7.93;;;6.47;;
19235;SDS011;9752;54.270;12.470;2022-10-16T21:07:44;9.03;;;5.87;;
19235;SDS011;9752;54.270;12.470;2022-10-16T21:12:46;11.80;;;6.67;;
19235;SDS011;9752;54.270;12.470;2022-10-16T21:17:49;11.90;;;6.80;;
19235;SDS011;9752;54.270;12.470;2022-10-16T21:22:50;9.63;;;6.67;;
19235;SDS011;9752;54.270;12.470;2022-10-16T21:27:52;8.90;;;6.03;;
19235;SDS011;9752;54.270;12.470;2022-10-16T21:32:55;10.23;;;7.53;;
19235;SDS011;9752;54.270;12.470;2022-10-16T21:37:57;8.73;;;7.13;;
19235;SDS011;9752;54.270;12.470;2022-10-16T21:42:59;14.20;;;6.73;;
19235;SDS011;9752;54.270;12.470;2022-10-16T21:48:05;13.83;;;7.63;;
19235;SDS011;9752;54.270;12.470;2022-10-16T21:53:06;15.27;;;7.23;;
19235;SDS011;9752;54.270;12.470;2022-10-16T21:58:08;11.80;;;6.53;;
19235;SDS011;9752;54.270;12.470;2022-10-16T22:03:11;12.23;;;7.23;;
19235;SDS011;9752;54.270;12.470;2022-10-16T22:08:13;11.30;;;6.57;;
19235;SDS011;9752;54.270;12.470;2022-10-16T22:13:15;11.73;;;7.53;;
19235;SDS011;9752;54.270;12.470;2022-10-16T22:18:18;11.40;;;7.30;;
19235;SDS011;9752;54.270;12.470;2022-10-16T22:23:20;10.67;;;7.20;;
19235;SDS011;9752;54.270;12.470;2022-10-16T22:28:22;13.73;;;7.17;;
19235;SDS011;9752;54.270;12.470;2022-10-16T22:33:25;7.83;;;7.03;;
19235;SDS011;9752;54.270;12.470;2022-10-16T22:38:27;11.00;;;7.57;;
19235;SDS011;9752;54.270;12.470;2022-10-16T22:43:29;14.07;;;8.37;;
19235;SDS011;9752;54.270;12.470;2022-10-16T22:48:32;12.37;;;8.37;;
19235;SDS011;9752;54.270;12.470;2022-10-16T22:53:35;16.27;;;8.07;;
19235;SDS011;9752;54.270;12.470;2022-10-16T22:58:36;16.03;;;7.37;;
19235;SDS011;9752;54.270;12.470;2022-10-16T23:03:40;13.43;;;8.63;;
19235;SDS011;9752;54.270;12.470;2022-10-16T23:08:41;16.70;;;9.13;;
19235;SDS011;9752;54.270;12.470;2022-10-16T23:13:43;12.90;;;8.30;;
19235;SDS011;9752;54.270;12.470;2022-10-16T23:18:46;12.67;;;8.33;;
19235;SDS011;9752;54.270;12.470;2022-10-16T23:23:49;13.57;;;8.37;;
19235;SDS011;9752;54.270;12.470;2022-10-16T23:28:53;11.10;;;9.17;;
19235;SDS011;9752;54.270;12.470;2022-10-16T23:33:57;8.77;;;7.67;;
19235;SDS011;9752;54.270;12.470;2022-10-16T23:38:59;8.53;;;6.93;;
19235;SDS011;9752;54.270;12.470;2022-10-16T23:44:01;14.23;;;8.43;;
19235;SDS011;9752;54.270;12.470;2022-10-16T23:49:05;13.13;;;7.70;;
19235;SDS011;9752;54.270;12.470;2022-10-16T23:54:06;15.63;;;8.73;;
19235;SDS011;9752;54.270;12.470;2022-10-16T23:59:08;11.80;;;8.30;;
